Burlington, CO (80807)

7:53 AM MDT on August 30, 2016 (GMT -0600)
Kit Carson County | | Change Station
Active Advisory: Special Statement Active Notice: Public Information Statement

Elev 4216 ft 39.24 °N, 102.28 °W | Updated 1 hour ago

Fog
Fog
60 °F
Feels Like 60 °F
N
7
Wind Variable Wind from West

Today
High -- | Low -- °F
--% Chance of Precip.
Yesterday
High -- | Low -- °F
Precip. -- in
Pressure 30.16 in
Visibility 0.2 miles
Clouds
Dew Point 58 °F
Humidity 93%
Rainfall 0.00 in
Snow Depth Not available.
6:16 AM 7:21 PM
Waning Crescent, 3% visible
METAR KITR 301253Z AUTO 26006KT M1/4SM FG VV001 16/14 A3028 RMK AO2 SLP211 T01560144
Pressure 30.16 in
Visibility 0.2 miles
Clouds
Dew Point 58 °F
Humidity 93%
Rainfall 0.00 in
Snow Depth Not available.
6:16 AM 7:21 PM
Waning Crescent, 3% visible
METAR KITR 301253Z AUTO 26006KT M1/4SM FG VV001 16/14 A3028 RMK AO2 SLP211 T01560144

10-Day Weather Forecast

Almanac

Astronomy

Aug. 30, 2016 Rise Set
Actual Time
Civil Twilight
Nautical Twilight
Astronomical Twilight
Moon
Length of Visible Light
Length of Day
Tomorrow will be .
, % of the Moon is Illuminated

Today's Extremes

State Highs State Lows

Community

WunderPhotos

Upload Photos

1,935,833 photos uploaded!

WunderBlog® & News

Nearby

Air Quality

  Air Quality AQ Index Pollutant
Not available.

Snow Depth

Station Depth Elevation

Earthquake Activity

City Distance Mag. Time & Date
Minimum magnitude displayed is 2.5.

Coastal Water Temperatures

Place Temperature

Stations

Nearby Weather Stations

Station Location Temp. Windchill Dew Point Humidity Wind Precip. Elev Updated Type
                   

Watches & Warnings

Special Statement
Issued: 8:06 AM CDT Aug. 30, 2016 – National Weather Service

Patchy dense fog will continue to impact parts of the area
through mid morning. Visibility may be reduced to one quarter mile
at times. Motorists should be prepared for sudden visibility
restrictions over short distances across area highways and
Interstate 70.



706 am MDT Tue Aug 30 2016 /806 am CDT Tue Aug 30 2016/

Patchy dense fog will continue to impact parts of the area
through mid morning. Visibility may be reduced to one quarter mile
at times. Motorists should be prepared for sudden visibility
restrictions over short distances across area highways and
Interstate 70.